createdAt,value
2023-01-29T00:01:54.084Z,103239.56
2023-01-29T00:04:20.867Z,103238.75
2023-01-29T00:06:47.469Z,103236.88
2023-01-29T00:09:14.206Z,103233.56
2023-01-29T00:11:41.065Z,103228.44
2023-01-29T00:14:07.983Z,103208.06
2023-01-29T00:16:34.526Z,103204.75
2023-01-29T00:19:02.438Z,103207.28
2023-01-29T00:21:31.101Z,103195.41
2023-01-29T00:23:58.325Z,103194.53
2023-01-29T00:26:25.008Z,103197.00
2023-01-29T00:28:51.627Z,103187.78
2023-01-29T00:31:21.195Z,103183.50
2023-01-29T00:33:48.319Z,103184.31
2023-01-29T00:36:17.589Z,103192.84
2023-01-29T00:38:44.379Z,103192.00
2023-01-29T00:41:32.678Z,103198.81
2023-01-29T00:44:18.973Z,103204.81
2023-01-29T00:46:46.315Z,103202.28
2023-01-29T00:49:12.945Z,103191.31
2023-01-29T00:51:39.890Z,103188.69
2023-01-29T00:54:09.750Z,103184.34
2023-01-29T00:56:37.206Z,103189.41
2023-01-29T00:59:04.517Z,103185.31
2023-01-29T01:01:49.809Z,103179.34
2023-01-29T01:04:16.447Z,103175.97
2023-01-29T01:06:43.724Z,103175.91
2023-01-29T01:09:29.761Z,103175.19
2023-01-29T01:11:56.417Z,103174.28
2023-01-29T01:14:23.081Z,103172.69
2023-01-29T01:16:50.170Z,103170.19
2023-01-29T01:19:16.974Z,103162.59
2023-01-29T01:21:45.574Z,103165.16
2023-01-29T01:24:12.964Z,103158.38
2023-01-29T01:26:39.897Z,103166.84
2023-01-29T01:29:06.980Z,103166.03
2023-01-29T01:31:33.757Z,103160.06
2023-01-29T01:34:00.353Z,103173.56
2023-01-29T01:36:26.876Z,103177.81
2023-01-29T01:38:54.363Z,103182.03
2023-01-29T01:41:23.323Z,103183.69
2023-01-29T01:43:49.866Z,103176.13
2023-01-29T01:46:17.128Z,103188.00
2023-01-29T01:48:45.969Z,103182.16
2023-01-29T01:51:15.660Z,103183.09
2023-01-29T01:53:50.224Z,103174.59
2023-01-29T01:56:26.578Z,103182.19
2023-01-29T01:58:56.951Z,103180.56
2023-01-29T02:01:28.119Z,103176.34
2023-01-29T02:04:23.413Z,103176.41
2023-01-29T02:07:11.074Z,103174.66
2023-01-29T02:09:46.492Z,103173.81
2023-01-29T02:12:16.121Z,103177.19
2023-01-29T02:14:44.177Z,103180.56
2023-01-29T02:17:14.335Z,103177.09
2023-01-29T02:20:05.665Z,103177.94
2023-01-29T02:22:35.471Z,103172.75
2023-01-29T02:25:26.923Z,103171.03
2023-01-29T02:28:14.154Z,103182.88
2023-01-29T02:30:56.377Z,103177.66
2023-01-29T02:33:48.149Z,103178.50
2023-01-29T02:36:40.840Z,103178.56
2023-01-29T02:39:23.821Z,103192.22
2023-01-29T02:42:11.716Z,103198.06
2023-01-29T02:44:44.018Z,103196.38
2023-01-29T02:47:38.219Z,103192.16
2023-01-29T02:50:29.758Z,103198.13
2023-01-29T02:53:11.149Z,103195.41
2023-01-29T02:55:52.910Z,103191.09
2023-01-29T02:58:28.123Z,103191.94
2023-01-29T03:00:59.249Z,103190.31
2023-01-29T03:03:28.294Z,103192.00
2023-01-29T03:06:22.535Z,103190.41
2023-01-29T03:09:05.180Z,103189.47
2023-01-29T03:11:42.511Z,103184.41
2023-01-29T03:14:18.202Z,103178.56
2023-01-29T03:16:51.559Z,103177.66
2023-01-29T03:19:26.214Z,103170.13
2023-01-29T03:22:01.106Z,103169.38
2023-01-29T03:25:09.673Z,103167.69
2023-01-29T03:28:08.096Z,103153.38
2023-01-29T03:30:57.311Z,103160.09
2023-01-29T03:33:26.643Z,103152.56
2023-01-29T03:36:02.581Z,103141.59
2023-01-29T03:38:32.174Z,103143.25
2023-01-29T03:41:23.026Z,103133.13
2023-01-29T03:44:34.591Z,103129.63
2023-01-29T03:47:29.204Z,103131.28
2023-01-29T03:50:17.578Z,103125.38
2023-01-29T03:52:53.607Z,103122.78
2023-01-29T03:55:49.540Z,103127.91
2023-01-29T03:58:41.162Z,103123.69
2023-01-29T04:01:13.456Z,103122.94
2023-01-29T04:03:43.748Z,103120.31
2023-01-29T04:06:15.123Z,103116.97
2023-01-29T04:09:06.415Z,103117.03
2023-01-29T04:11:37.325Z,103106.06
2023-01-29T04:14:04.602Z,103111.03
2023-01-29T04:16:39.950Z,103105.91
2023-01-29T04:19:06.998Z,103105.19
2023-01-29T04:21:37.627Z,103105.19
2023-01-29T04:24:06.769Z,103100.75
2023-01-29T04:26:52.135Z,103105.69
2023-01-29T04:29:38.539Z,103105.69
2023-01-29T04:32:08.227Z,103099.66
2023-01-29T04:34:58.995Z,103097.84
2023-01-29T04:37:59.601Z,103100.44
2023-01-29T04:40:39.363Z,103101.25
2023-01-29T04:43:29.193Z,103102.97
2023-01-29T04:46:07.341Z,103090.28
2023-01-29T04:48:36.804Z,103085.09
2023-01-29T04:51:21.125Z,103093.53
2023-01-29T04:53:57.237Z,103085.91
2023-01-29T04:56:33.296Z,103075.72
2023-01-29T04:59:07.568Z,103073.06
2023-01-29T05:01:36.032Z,103075.63
2023-01-29T05:04:07.454Z,103073.84
2023-01-29T05:06:35.968Z,103069.63
2023-01-29T05:09:03.479Z,103073.06
2023-01-29T05:11:32.833Z,103065.34
2023-01-29T05:14:02.363Z,103070.34
2023-01-29T05:16:42.018Z,103071.22
2023-01-29T05:19:13.608Z,103064.47
2023-01-29T05:21:43.776Z,103069.53
2023-01-29T05:24:19.634Z,103069.53
2023-01-29T05:27:07.451Z,103072.94
2023-01-29T05:29:34.280Z,103085.59
2023-01-29T05:32:01.138Z,103080.41
2023-01-29T05:34:27.693Z,103089.59
2023-01-29T05:36:54.298Z,103082.06
2023-01-29T05:39:20.913Z,103082.13
2023-01-29T05:41:47.802Z,103084.59
2023-01-29T05:44:14.300Z,103080.41
2023-01-29T05:46:40.965Z,103074.41
2023-01-29T05:49:07.652Z,103080.28
2023-01-29T05:51:34.394Z,103083.69
2023-01-29T05:54:01.918Z,103082.06
2023-01-29T05:56:28.564Z,103078.75
2023-01-29T05:58:55.741Z,103070.22
2023-01-29T06:01:25.154Z,103057.66
2023-01-29T06:03:52.109Z,103049.94
2023-01-29T06:06:18.990Z,103058.31
2023-01-29T06:08:45.729Z,103049.06
2023-01-29T06:11:14.202Z,103050.81
2023-01-29T06:13:41.078Z,103041.53
2023-01-29T06:16:08.922Z,103037.22
2023-01-29T06:18:39.879Z,103038.97
2023-01-29T06:21:10.376Z,103044.03
2023-01-29T06:23:37.355Z,103038.06
2023-01-29T06:26:09.105Z,103035.56
2023-01-29T06:28:35.708Z,103037.28
2023-01-29T06:31:23.756Z,103033.84
2023-01-29T06:33:50.973Z,103023.72
2023-01-29T06:36:17.702Z,103026.31
2023-01-29T06:38:44.288Z,103032.16
2023-01-29T06:41:13.048Z,103023.72
2023-01-29T06:43:40.078Z,103026.31
2023-01-29T06:46:08.174Z,103027.22
2023-01-29T06:48:35.284Z,103023.84
2023-01-29T06:51:06.784Z,103037.41
2023-01-29T06:53:34.747Z,103032.41
2023-01-29T06:56:01.252Z,103029.00
2023-01-29T06:58:27.772Z,103024.78
2023-01-29T07:00:54.432Z,103034.06
2023-01-29T07:03:21.236Z,103034.91
2023-01-29T07:05:53.058Z,103029.84
2023-01-29T07:08:22.627Z,103023.94
2023-01-29T07:10:52.974Z,103023.16
2023-01-29T07:13:19.502Z,103030.78
2023-01-29T07:15:46.317Z,103029.94
2023-01-29T07:18:12.795Z,103017.34
2023-01-29T07:20:40.758Z,103025.75
2023-01-29T07:23:10.965Z,103025.63
2023-01-29T07:25:37.777Z,103034.00
2023-01-29T07:28:05.095Z,103027.31
2023-01-29T07:30:32.010Z,103029.06
2023-01-29T07:33:16.728Z,103022.34
2023-01-29T07:35:43.765Z,103023.22
2023-01-29T07:38:14.002Z,103030.78
2023-01-29T07:40:40.823Z,103019.03
2023-01-29T07:43:08.049Z,103014.78
2023-01-29T07:45:39.759Z,103018.22
2023-01-29T07:48:09.753Z,103007.28
2023-01-29T07:50:36.589Z,103009.03
2023-01-29T07:53:03.761Z,103011.56
2023-01-29T07:55:30.967Z,103008.22
2023-01-29T07:57:57.898Z,103001.53
2023-01-29T08:00:25.212Z,102993.09
2023-01-29T08:02:51.921Z,102989.84
2023-01-29T08:05:19.066Z,102989.03
2023-01-29T08:07:51.487Z,102990.72
2023-01-29T08:10:24.822Z,102987.41
2023-01-29T08:12:59.328Z,102987.47
2023-01-29T08:15:28.056Z,102974.91
2023-01-29T08:17:58.085Z,102978.28
2023-01-29T08:20:25.784Z,102983.34
2023-01-29T08:23:00.234Z,102978.31
2023-01-29T08:25:27.386Z,102976.72
2023-01-29T08:27:54.220Z,102980.16
2023-01-29T08:30:20.850Z,102972.72
2023-01-29T08:32:47.435Z,102971.97
2023-01-29T08:35:13.979Z,102966.94
2023-01-29T08:37:40.548Z,102970.34
2023-01-29T08:40:09.526Z,102962.78
2023-01-29T08:42:36.436Z,102960.41
2023-01-29T08:45:05.013Z,102954.50
2023-01-29T08:47:31.554Z,102955.44
2023-01-29T08:49:58.048Z,102954.63
2023-01-29T08:52:24.915Z,102947.91
2023-01-29T08:54:51.453Z,102949.78
2023-01-29T08:57:18.054Z,102944.84
2023-01-29T08:59:44.535Z,102946.50
2023-01-29T09:02:11.961Z,102949.03
2023-01-29T09:04:38.587Z,102951.63
2023-01-29T09:07:05.196Z,102940.69
2023-01-29T09:09:31.798Z,102948.41
2023-01-29T09:11:58.664Z,102952.63
2023-01-29T09:14:25.492Z,102945.91
2023-01-29T09:16:52.156Z,102949.31
2023-01-29T09:19:18.726Z,102946.81
2023-01-29T09:21:45.264Z,102937.56
2023-01-29T09:24:11.937Z,102946.06
2023-01-29T09:26:40.203Z,102945.44
2023-01-29T09:29:07.076Z,102947.22
2023-01-29T09:31:33.722Z,102952.38
2023-01-29T09:34:00.381Z,102953.22
2023-01-29T09:36:26.987Z,102952.44
2023-01-29T09:38:53.569Z,102949.09
2023-01-29T09:41:51.684Z,102953.41
2023-01-29T09:44:47.622Z,102947.63
2023-01-29T09:47:17.261Z,102951.19
2023-01-29T09:49:48.388Z,102948.59
2023-01-29T09:52:14.793Z,102950.38
2023-01-29T09:55:15.352Z,102946.97
2023-01-29T09:57:50.642Z,102939.59
2023-01-29T10:00:44.536Z,102935.50
2023-01-29T10:03:35.658Z,102938.13
2023-01-29T10:06:23.376Z,102943.28
2023-01-29T10:09:34.988Z,102934.94
2023-01-29T10:12:53.626Z,102933.41
2023-01-29T10:15:38.683Z,102935.09
2023-01-29T10:18:38.200Z,102925.84
2023-01-29T10:21:11.609Z,102929.34
2023-01-29T10:23:46.166Z,102926.03
2023-01-29T10:26:14.731Z,102923.44
2023-01-29T10:28:48.464Z,102920.91
2023-01-29T10:31:25.279Z,102920.84
2023-01-29T10:34:03.462Z,102916.66
2023-01-29T10:36:42.982Z,102911.63
2023-01-29T10:39:30.971Z,102901.41
2023-01-29T10:42:06.463Z,102894.66
2023-01-29T10:44:53.564Z,102889.66
2023-01-29T10:47:34.725Z,102878.78
2023-01-29T10:50:26.564Z,102877.22
2023-01-29T10:52:58.987Z,102874.75
2023-01-29T10:55:41.638Z,102871.41
2023-01-29T10:58:31.902Z,102871.53
2023-01-29T11:00:59.656Z,102859.78
2023-01-29T11:03:29.130Z,102860.69
2023-01-29T11:06:04.763Z,102858.22
2023-01-29T11:08:41.382Z,102857.41
2023-01-29T11:11:15.511Z,102858.25
2023-01-29T11:14:07.788Z,102851.59
2023-01-29T11:16:49.835Z,102838.06
2023-01-29T11:19:16.728Z,102835.53
2023-01-29T11:21:57.874Z,102847.44
2023-01-29T11:24:24.704Z,102836.50
2023-01-29T11:26:59.561Z,102838.19
2023-01-29T11:29:38.806Z,102835.59
2023-01-29T11:32:11.993Z,102829.69
2023-01-29T11:34:56.736Z,102834.78
2023-01-29T11:37:23.899Z,102828.03
2023-01-29T11:39:50.722Z,102826.34
2023-01-29T11:42:22.238Z,102822.22
2023-01-29T11:44:49.620Z,102817.94
2023-01-29T11:47:16.031Z,102822.25
2023-01-29T11:49:55.128Z,102812.81
2023-01-29T11:52:24.669Z,102811.97
2023-01-29T11:54:59.417Z,102807.72
2023-01-29T11:57:30.437Z,102801.78
2023-01-29T12:00:02.760Z,102809.44
2023-01-29T12:02:37.048Z,102789.16
2023-01-29T12:05:14.555Z,102790.78
2023-01-29T12:07:42.967Z,102793.31
2023-01-29T12:10:30.775Z,102795.06
2023-01-29T12:13:21.783Z,102786.56
2023-01-29T12:15:49.175Z,102778.13
2023-01-29T12:18:15.686Z,102774.81
2023-01-29T12:20:50.610Z,102768.06
2023-01-29T12:23:28.322Z,102761.34
2023-01-29T12:26:15.957Z,102750.28
2023-01-29T12:29:20.857Z,102735.03
2023-01-29T12:31:59.759Z,102732.53
2023-01-29T12:34:46.416Z,102741.84
2023-01-29T12:37:30.817Z,102734.25
2023-01-29T12:39:57.363Z,102730.91
2023-01-29T12:42:25.489Z,102736.03
2023-01-29T12:44:59.552Z,102725.97
2023-01-29T12:47:36.821Z,102709.06
2023-01-29T12:50:27.613Z,102707.41
2023-01-29T12:53:01.798Z,102705.75
2023-01-29T12:55:36.979Z,102695.56
2023-01-29T12:58:09.327Z,102684.59
2023-01-29T13:00:40.387Z,102678.72
2023-01-29T13:03:25.670Z,102666.84
2023-01-29T13:05:57.166Z,102656.69
2023-01-29T13:08:29.379Z,102646.56
2023-01-29T13:10:58.686Z,102644.81
2023-01-29T13:13:32.974Z,102645.66
2023-01-29T13:16:01.306Z,102635.50
2023-01-29T13:18:45.244Z,102625.38
2023-01-29T13:21:18.435Z,102611.06
2023-01-29T13:23:51.345Z,102604.41
2023-01-29T13:26:19.858Z,102592.66
2023-01-29T13:28:47.559Z,102588.59
2023-01-29T13:31:19.944Z,102594.75
2023-01-29T13:33:55.416Z,102584.69
2023-01-29T13:36:29.123Z,102583.06
2023-01-29T13:39:17.100Z,102583.09
2023-01-29T13:41:43.759Z,102574.59
2023-01-29T13:44:39.772Z,102576.38
2023-01-29T13:47:10.426Z,102572.22
2023-01-29T13:49:46.346Z,102568.09
2023-01-29T13:52:34.075Z,102571.50
2023-01-29T13:55:05.840Z,102568.13
2023-01-29T13:57:55.939Z,102565.63
2023-01-29T14:00:22.696Z,102563.19
2023-01-29T14:02:55.223Z,102554.84
2023-01-29T14:05:31.003Z,102565.00
2023-01-29T14:07:59.565Z,102561.63
2023-01-29T14:10:28.813Z,102564.19
2023-01-29T14:13:23.900Z,102567.56
2023-01-29T14:15:59.486Z,102559.97
2023-01-29T14:18:28.084Z,102555.81
2023-01-29T14:21:07.148Z,102549.94
2023-01-29T14:23:50.696Z,102544.03
2023-01-29T14:26:28.868Z,102546.63
2023-01-29T14:29:03.049Z,102553.38
2023-01-29T14:31:35.135Z,102554.25
2023-01-29T14:34:04.979Z,102549.19
2023-01-29T14:36:40.103Z,102544.16
2023-01-29T14:39:07.663Z,102539.91
2023-01-29T14:41:36.003Z,102529.75
2023-01-29T14:44:40.420Z,102528.91
2023-01-29T14:47:18.770Z,102529.75
2023-01-29T14:49:49.297Z,102522.13
2023-01-29T14:52:18.026Z,102528.06
2023-01-29T14:54:47.909Z,102528.06
2023-01-29T14:57:17.177Z,102527.97
2023-01-29T14:59:49.684Z,102522.88
2023-01-29T15:02:26.473Z,102517.81
2023-01-29T15:04:58.175Z,102502.56
2023-01-29T15:07:31.970Z,102500.03
2023-01-29T15:10:21.479Z,102503.41
2023-01-29T15:13:09.179Z,102492.44
2023-01-29T15:15:35.716Z,102490.81
2023-01-29T15:18:05.018Z,102482.31
2023-01-29T15:20:37.407Z,102486.56
2023-01-29T15:23:23.744Z,102485.72
2023-01-29T15:25:52.861Z,102489.06
2023-01-29T15:28:20.070Z,102492.44
2023-01-29T15:30:54.099Z,102489.88
2023-01-29T15:33:21.330Z,102488.09
2023-01-29T15:35:49.851Z,102477.06
2023-01-29T15:38:26.693Z,102476.22
2023-01-29T15:41:01.971Z,102471.16
2023-01-29T15:43:37.268Z,102467.72
2023-01-29T15:46:27.062Z,102470.22
2023-01-29T15:48:54.936Z,102466.84
2023-01-29T15:51:25.594Z,102458.31
2023-01-29T15:53:56.121Z,102454.94
2023-01-29T15:56:30.424Z,102461.72
2023-01-29T15:59:00.770Z,102445.59
2023-01-29T16:01:28.785Z,102448.97
2023-01-29T16:03:59.365Z,102459.09
2023-01-29T16:06:38.829Z,102459.03
2023-01-29T16:09:07.327Z,102469.13
2023-01-29T16:11:35.721Z,102473.31
2023-01-29T16:14:03.487Z,102467.41
2023-01-29T16:16:30.272Z,102474.13
2023-01-29T16:19:01.386Z,102470.59
2023-01-29T16:21:39.080Z,102475.59
2023-01-29T16:24:11.778Z,102462.81
2023-01-29T16:26:44.876Z,102468.69
2023-01-29T16:29:21.763Z,102475.41
2023-01-29T16:31:52.124Z,102483.78
2023-01-29T16:34:35.120Z,102466.78
2023-01-29T16:37:04.377Z,102458.28
2023-01-29T16:39:35.750Z,102460.75
2023-01-29T16:42:17.546Z,102451.44
2023-01-29T16:45:05.706Z,102442.94
2023-01-29T16:47:41.218Z,102442.03
2023-01-29T16:50:43.399Z,102438.63
2023-01-29T16:53:23.362Z,102441.94
2023-01-29T16:55:52.495Z,102440.97
2023-01-29T16:58:28.250Z,102436.69
2023-01-29T17:01:02.169Z,102431.63
2023-01-29T17:03:32.589Z,102434.13
2023-01-29T17:06:08.455Z,102434.03
2023-01-29T17:08:35.626Z,102427.22
2023-01-29T17:11:02.883Z,102431.41
2023-01-29T17:13:42.687Z,102431.31
2023-01-29T17:16:29.813Z,102434.59
2023-01-29T17:18:56.458Z,102421.94
2023-01-29T17:21:23.691Z,102426.13
2023-01-29T17:23:50.699Z,102424.41
2023-01-29T17:26:17.987Z,102417.59
2023-01-29T17:28:45.107Z,102414.22
2023-01-29T17:31:11.952Z,102412.53
2023-01-29T17:33:42.775Z,102410.78
2023-01-29T17:36:13.290Z,102419.28
2023-01-29T17:38:40.395Z,102417.50
2023-01-29T17:41:14.174Z,102414.09
2023-01-29T17:43:40.743Z,102413.28
2023-01-29T17:46:13.626Z,102403.94
2023-01-29T17:48:40.737Z,102395.50
2023-01-29T17:51:15.119Z,102382.84
2023-01-29T17:53:45.784Z,102385.41
2023-01-29T17:56:28.121Z,102383.72
2023-01-29T17:58:54.691Z,102380.34
2023-01-29T18:01:21.435Z,102377.81
2023-01-29T18:03:47.964Z,102369.38
2023-01-29T18:06:27.347Z,102367.69
2023-01-29T18:08:53.963Z,102362.63
2023-01-29T18:11:24.136Z,102344.91
2023-01-29T18:13:50.961Z,102356.75
2023-01-29T18:16:18.531Z,102354.28
2023-01-29T18:18:45.211Z,102356.84
2023-01-29T18:21:11.769Z,102339.16
2023-01-29T18:23:38.345Z,102341.63
2023-01-29T18:26:05.121Z,102340.81
2023-01-29T18:28:31.632Z,102340.81
2023-01-29T18:30:58.211Z,102329.91
2023-01-29T18:33:25.939Z,102324.84
2023-01-29T18:35:55.007Z,102314.72
2023-01-29T18:38:21.616Z,102318.16
2023-01-29T18:40:50.099Z,102318.16
2023-01-29T18:43:16.949Z,102298.75
2023-01-29T18:45:43.492Z,102300.50
2023-01-29T18:48:10.132Z,102286.09
2023-01-29T18:50:37.909Z,102287.84
2023-01-29T18:53:04.494Z,102274.38
2023-01-29T18:55:31.269Z,102276.91
2023-01-29T18:58:25.919Z,102276.91
2023-01-29T19:00:47.214Z,102257.47
2023-01-29T19:03:13.707Z,102271.00
2023-01-29T19:05:40.262Z,102263.41
2023-01-29T19:08:09.616Z,102254.94
2023-01-29T19:10:36.423Z,102249.03
2023-01-29T19:13:05.293Z,102238.91
2023-01-29T19:15:32.476Z,102230.44
2023-01-29T19:17:59.029Z,102232.97
2023-01-29T19:20:25.553Z,102223.69
2023-01-29T19:22:54.323Z,102213.53
2023-01-29T19:25:21.301Z,102231.28
2023-01-29T19:27:47.905Z,102245.66
2023-01-29T19:30:14.720Z,102239.78
2023-01-29T19:32:41.502Z,102217.81
2023-01-29T19:35:08.272Z,102227.97
2023-01-29T19:37:34.823Z,102217.84
2023-01-29T19:40:01.380Z,102226.31
2023-01-29T19:42:28.219Z,102224.59
2023-01-29T19:44:54.775Z,102214.50
2023-01-29T19:47:21.422Z,102208.63
2023-01-29T19:49:48.014Z,102216.22
2023-01-29T19:52:49.896Z,102218.75
2023-01-29T19:55:17.550Z,102213.69
2023-01-29T19:57:44.381Z,102196.75
2023-01-29T20:00:12.209Z,102195.13
2023-01-29T20:02:38.782Z,102201.81
2023-01-29T20:05:07.054Z,102207.78
2023-01-29T20:07:36.046Z,102212.88
2023-01-29T20:10:02.746Z,102209.47
2023-01-29T20:12:30.008Z,102196.00
2023-01-29T20:14:56.634Z,102201.09
2023-01-29T20:17:23.305Z,102187.59
2023-01-29T20:19:49.763Z,102196.91
2023-01-29T20:22:16.432Z,102195.22
2023-01-29T20:24:42.923Z,102202.00
2023-01-29T20:27:10.698Z,102196.13
2023-01-29T20:29:38.614Z,102189.34
2023-01-29T20:32:07.979Z,102192.78
2023-01-29T20:34:35.175Z,102180.09
2023-01-29T20:37:01.942Z,102174.19
2023-01-29T20:39:28.624Z,102166.56
2023-01-29T20:41:57.262Z,102183.50
2023-01-29T20:44:24.628Z,102204.69
2023-01-29T20:46:51.396Z,102195.38
2023-01-29T20:49:18.406Z,102185.25
2023-01-29T20:51:45.703Z,102179.38
2023-01-29T20:54:14.999Z,102179.38
2023-01-29T20:56:47.044Z,102185.34
2023-01-29T20:59:14.298Z,102187.91
2023-01-29T21:01:43.670Z,102185.38
2023-01-29T21:04:10.235Z,102170.19
2023-01-29T21:06:36.756Z,102173.59
2023-01-29T21:09:03.738Z,102169.41
2023-01-29T21:11:30.322Z,102172.84
2023-01-29T21:13:57.907Z,102174.56
2023-01-29T21:16:26.353Z,102179.69
2023-01-29T21:19:01.987Z,102188.16
2023-01-29T21:21:28.769Z,102189.91
2023-01-29T21:23:55.250Z,102172.22
2023-01-29T21:26:23.291Z,102177.28
2023-01-29T21:28:50.045Z,102185.78
2023-01-29T21:31:17.639Z,102188.38
2023-01-29T21:33:44.528Z,102175.75
2023-01-29T21:36:14.867Z,102169.91
2023-01-29T21:38:41.418Z,102175.06
2023-01-29T21:41:14.504Z,102175.94
2023-01-29T21:43:41.018Z,102177.69
2023-01-29T21:46:14.148Z,102177.78
2023-01-29T21:48:40.779Z,102144.84
2023-01-29T21:51:07.986Z,102123.72
2023-01-29T21:53:34.973Z,102112.78
2023-01-29T21:56:02.885Z,102102.63
2023-01-29T21:58:29.982Z,102089.97
2023-01-29T22:00:57.386Z,102086.63
2023-01-29T22:03:46.118Z,102060.44
2023-01-29T22:06:13.634Z,102058.78
2023-01-29T22:08:40.130Z,102040.16
2023-01-29T22:11:07.411Z,102053.72
2023-01-29T22:13:34.122Z,102035.13
2023-01-29T22:16:00.908Z,102043.59
2023-01-29T22:18:27.764Z,102072.34
2023-01-29T22:20:55.275Z,102068.16
2023-01-29T22:23:22.883Z,102063.91
2023-01-29T22:25:49.668Z,102035.19
2023-01-29T22:28:17.069Z,102047.03
2023-01-29T22:30:45.110Z,102036.88
2023-01-29T22:33:12.245Z,102037.72
2023-01-29T22:35:38.979Z,102058.06
2023-01-29T22:38:05.510Z,102037.78
2023-01-29T22:40:32.110Z,102031.91
2023-01-29T22:42:58.620Z,102022.59
2023-01-29T22:45:25.272Z,102014.16
2023-01-29T22:47:51.727Z,102007.41
2023-01-29T22:50:18.468Z,102003.22
2023-01-29T22:52:54.050Z,101999.03
2023-01-29T22:55:20.841Z,101997.34
2023-01-29T22:57:49.520Z,101988.09
2023-01-29T23:00:16.826Z,101976.28
2023-01-29T23:02:43.491Z,101988.13
2023-01-29T23:05:10.042Z,102004.25
2023-01-29T23:07:39.450Z,102001.78
2023-01-29T23:10:07.250Z,102000.97
2023-01-29T23:12:37.010Z,101985.75
2023-01-29T23:15:03.874Z,101990.84
2023-01-29T23:17:30.477Z,101986.66
2023-01-29T23:19:56.952Z,101974.81
2023-01-29T23:22:23.599Z,101973.16
2023-01-29T23:24:50.214Z,101967.25
2023-01-29T23:27:16.808Z,101971.50
2023-01-29T23:29:45.116Z,101988.50
2023-01-29T23:32:16.495Z,101953.81
2023-01-29T23:34:42.968Z,101934.34
2023-01-29T23:37:09.812Z,101919.97
2023-01-29T23:39:36.446Z,101924.25
2023-01-29T23:42:03.160Z,101921.69
2023-01-29T23:44:29.633Z,101926.78
2023-01-29T23:46:56.263Z,101916.66
2023-01-29T23:49:22.857Z,101920.94
2023-01-29T23:51:51.314Z,101928.56
2023-01-29T23:54:18.390Z,101924.38
2023-01-29T23:56:45.190Z,101914.22
2023-01-29T23:59:11.836Z,101918.47
